createdAt,value
2019-04-01T00:04:23.368Z,24.03
2019-04-01T00:09:24.518Z,26.57
2019-04-01T00:14:25.648Z,26.17
2019-04-01T00:19:26.928Z,37.70
2019-04-01T00:24:28.018Z,42.23
2019-04-01T00:29:29.143Z,43.30
2019-04-01T00:34:30.327Z,43.57
2019-04-01T00:39:31.426Z,36.60
2019-04-01T00:44:32.539Z,41.80
2019-04-01T00:49:33.635Z,42.00
2019-04-01T00:54:34.724Z,45.00
2019-04-01T00:59:35.824Z,51.23
2019-04-01T01:04:36.919Z,52.30
2019-04-01T01:09:38.050Z,52.17
2019-04-01T01:14:39.131Z,51.50
2019-04-01T01:19:40.226Z,50.90
2019-04-01T01:24:41.316Z,47.83
2019-04-01T01:29:42.408Z,50.07
2019-04-01T01:34:43.500Z,41.07
2019-04-01T01:39:44.588Z,40.47
2019-04-01T01:44:45.674Z,51.43
2019-04-01T01:49:46.786Z,55.03
2019-04-01T01:54:47.875Z,53.90
2019-04-01T01:59:48.983Z,52.90
2019-04-01T02:04:50.098Z,56.80
2019-04-01T02:09:51.207Z,51.50
2019-04-01T02:14:52.313Z,56.77
2019-04-01T02:19:53.496Z,55.40
2019-04-01T02:24:54.604Z,59.90
2019-04-01T02:29:55.735Z,54.63
2019-04-01T02:34:56.837Z,52.67
2019-04-01T02:39:59.019Z,52.40
2019-04-01T02:45:00.565Z,54.17
2019-04-01T02:50:01.941Z,49.40
2019-04-01T02:55:06.872Z,58.83
2019-04-01T03:00:08.841Z,64.20
2019-04-01T03:05:09.934Z,56.83
2019-04-01T03:10:11.264Z,59.43
2019-04-01T03:15:12.360Z,68.53
2019-04-01T03:20:13.547Z,63.83
2019-04-01T03:25:14.641Z,57.40
2019-04-01T03:30:15.831Z,57.67
2019-04-01T03:35:17.081Z,59.87
2019-04-01T03:40:18.534Z,58.00
2019-04-01T03:45:19.625Z,63.33
2019-04-01T03:50:20.726Z,75.23
2019-04-01T03:55:21.816Z,66.47
2019-04-01T04:00:22.896Z,73.57
2019-04-01T04:05:23.993Z,66.23
2019-04-01T04:10:25.107Z,71.80
2019-04-01T04:15:26.204Z,73.87
2019-04-01T04:20:27.297Z,70.53
2019-04-01T04:25:28.447Z,65.50
2019-04-01T04:30:29.574Z,69.03
2019-04-01T04:35:30.759Z,65.63
2019-04-01T04:40:31.857Z,69.97
2019-04-01T04:45:32.990Z,74.57
2019-04-01T04:50:34.087Z,75.17
2019-04-01T04:55:35.154Z,79.03
2019-04-01T05:00:36.361Z,67.10
2019-04-01T05:05:37.452Z,72.10
2019-04-01T05:10:38.713Z,78.77
2019-04-01T05:15:39.900Z,69.60
2019-04-01T05:20:41.221Z,71.90
2019-04-01T05:25:43.101Z,80.07
2019-04-01T05:30:46.999Z,81.53
2019-04-01T05:35:49.483Z,79.00
2019-04-01T05:40:50.583Z,66.07
2019-04-01T05:45:51.660Z,71.10
2019-04-01T05:50:52.857Z,83.90
2019-04-01T05:55:54.071Z,68.37
2019-04-01T06:01:00.112Z,77.47
2019-04-01T06:06:01.515Z,70.00
2019-04-01T06:11:02.746Z,63.43
2019-04-01T06:16:03.852Z,65.23
2019-04-01T06:21:05.160Z,65.30
2019-04-01T06:26:06.259Z,65.50
2019-04-01T06:31:07.544Z,58.83
2019-04-01T06:36:08.645Z,63.17
2019-04-01T06:41:09.747Z,57.73
2019-04-01T06:46:10.838Z,56.23
2019-04-01T06:51:12.018Z,55.30
2019-04-01T06:56:13.115Z,53.97
2019-04-01T07:01:14.417Z,58.03
2019-04-01T07:06:15.521Z,53.50
2019-04-01T07:11:17.302Z,56.47
2019-04-01T07:16:18.555Z,51.77
2019-04-01T07:21:20.042Z,56.70
2019-04-01T07:26:21.360Z,51.23
2019-04-01T07:31:22.596Z,52.07
2019-04-01T07:36:23.890Z,48.07
2019-04-01T07:41:25.191Z,58.30
2019-04-01T07:46:26.288Z,57.33
2019-04-01T07:51:27.471Z,47.33
2019-04-01T07:56:28.763Z,48.43
2019-04-01T08:01:29.867Z,47.93
2019-04-01T08:06:31.460Z,44.00
2019-04-01T08:11:32.755Z,45.77
2019-04-01T08:16:35.616Z,43.87
2019-04-01T08:21:36.804Z,40.50
2019-04-01T08:26:37.894Z,41.83
2019-04-01T08:31:38.984Z,34.70
2019-04-01T08:36:40.189Z,34.27
2019-04-01T08:41:43.092Z,30.40
2019-04-01T08:46:44.258Z,28.37
2019-04-01T08:51:45.461Z,28.43
2019-04-01T08:56:47.255Z,29.40
2019-04-01T09:01:48.378Z,29.13
2019-04-01T09:06:49.471Z,28.60
2019-04-01T09:11:50.887Z,29.13
2019-04-01T09:16:52.590Z,29.17
2019-04-01T09:21:53.682Z,28.07
2019-04-01T09:26:54.768Z,26.63
2019-04-01T09:31:55.864Z,27.17
2019-04-01T09:36:56.955Z,25.63
2019-04-01T09:41:58.074Z,29.77
2019-04-01T09:46:59.162Z,26.63
2019-04-01T09:52:03.732Z,26.00
2019-04-01T09:57:16.719Z,30.17
2019-04-01T10:02:06.765Z,25.30
2019-04-01T10:07:07.870Z,25.97
2019-04-01T10:12:09.001Z,26.10
2019-04-01T10:17:10.095Z,26.00
2019-04-01T10:22:11.191Z,27.23
2019-04-01T10:27:12.313Z,25.87
2019-04-01T10:32:13.825Z,27.20
2019-04-01T10:37:14.974Z,27.77
2019-04-01T10:42:16.083Z,26.20
2019-04-01T10:47:17.206Z,26.53
2019-04-01T10:52:18.410Z,26.83
2019-04-01T10:57:19.572Z,26.17
2019-04-01T11:02:20.816Z,25.83
2019-04-01T11:07:22.038Z,25.10
2019-04-01T11:12:23.219Z,25.93
2019-04-01T11:17:24.340Z,25.40
2019-04-01T11:22:25.548Z,25.00
2019-04-01T11:27:26.663Z,24.60
2019-04-01T11:32:27.845Z,23.27
2019-04-01T11:37:29.117Z,21.00
2019-04-01T11:42:30.466Z,23.83
2019-04-01T11:47:31.659Z,23.83
2019-04-01T11:52:32.885Z,20.27
2019-04-01T11:57:34.087Z,21.53
2019-04-01T12:02:35.300Z,22.67
2019-04-01T12:07:36.403Z,22.20
2019-04-01T12:12:37.537Z,24.00
2019-04-01T12:17:41.541Z,25.50
2019-04-01T12:22:45.400Z,20.13
2019-04-01T12:27:45.362Z,21.50
2019-04-01T12:32:46.735Z,17.27
2019-04-01T12:37:47.933Z,18.03
2019-04-01T12:42:50.795Z,18.03
2019-04-01T12:47:52.064Z,17.33
2019-04-01T12:52:53.259Z,17.23
2019-04-01T12:57:54.360Z,16.17
2019-04-01T13:02:55.452Z,16.27
2019-04-01T13:07:56.596Z,12.10
2019-04-01T13:12:57.727Z,11.53
2019-04-01T13:17:58.820Z,17.40
2019-04-01T13:22:59.918Z,13.17
2019-04-01T13:28:01.011Z,13.53
2019-04-01T13:33:02.130Z,12.30
2019-04-01T13:38:03.313Z,13.87
2019-04-01T13:43:04.686Z,14.53
2019-04-01T13:48:06.154Z,15.90
2019-04-01T13:53:07.452Z,14.33
2019-04-01T13:58:08.587Z,15.10
2019-04-01T14:03:11.351Z,13.53
2019-04-01T14:08:12.695Z,14.33
2019-04-01T14:13:13.819Z,14.13
2019-04-01T14:18:14.921Z,14.47
2019-04-01T14:23:16.044Z,15.30
2019-04-01T14:28:17.165Z,15.13
2019-04-01T14:33:18.348Z,15.40
2019-04-01T14:38:19.550Z,17.70
2019-04-01T14:43:20.819Z,18.03
2019-04-01T14:48:21.933Z,16.57
2019-04-01T14:53:23.118Z,16.30
2019-04-01T14:58:24.265Z,17.97
2019-04-01T15:03:25.624Z,16.47
2019-04-01T15:08:26.776Z,17.90
2019-04-01T15:13:28.256Z,16.30
2019-04-01T15:18:29.341Z,19.37
2019-04-01T15:23:30.483Z,19.10
2019-04-01T15:28:31.738Z,20.27
2019-04-01T15:33:32.871Z,20.43
2019-04-01T15:38:34.035Z,18.70
2019-04-01T15:43:35.218Z,19.73
2019-04-01T15:48:36.757Z,19.87
2019-04-01T15:53:38.131Z,18.73
2019-04-01T15:58:39.280Z,19.63
2019-04-01T16:03:40.374Z,19.60
2019-04-01T16:08:41.496Z,20.93
2019-04-01T16:13:43.178Z,20.47
2019-04-01T16:18:44.650Z,23.07
2019-04-01T16:23:47.054Z,20.33
2019-04-01T16:28:48.451Z,22.30
2019-04-01T16:33:49.582Z,21.97
2019-04-01T16:38:50.767Z,20.77
2019-04-01T16:43:51.868Z,21.33
2019-04-01T16:48:52.996Z,21.87
2019-04-01T16:53:56.107Z,21.57
2019-04-01T16:58:57.220Z,19.90
2019-04-01T17:04:00.616Z,23.27
2019-04-01T17:09:03.956Z,20.47
2019-04-01T17:14:08.787Z,24.27
2019-04-01T17:19:08.322Z,32.07
2019-04-01T17:24:09.556Z,22.20
2019-04-01T17:29:10.659Z,29.70
2019-04-01T17:34:11.781Z,25.93
2019-04-01T17:39:13.156Z,27.00
2019-04-01T17:44:14.534Z,26.83
2019-04-01T17:49:15.933Z,27.23
2019-04-01T17:54:17.178Z,26.70
2019-04-01T17:59:18.820Z,26.03
2019-04-01T18:04:20.338Z,24.93
2019-04-01T18:09:21.591Z,26.17
2019-04-01T18:14:22.727Z,29.43
2019-04-01T18:19:23.895Z,30.67
2019-04-01T18:24:25.003Z,28.67
2019-04-01T18:29:26.109Z,27.33
2019-04-01T18:34:28.059Z,26.43
2019-04-01T18:39:30.029Z,29.80
2019-04-01T18:44:31.381Z,28.27
2019-04-01T18:49:32.504Z,30.07
2019-04-01T18:54:34.108Z,30.57
2019-04-01T18:59:35.540Z,31.80
2019-04-01T19:04:36.689Z,34.27
2019-04-01T19:09:37.866Z,31.23
2019-04-01T19:14:40.165Z,29.97
2019-04-01T19:19:42.413Z,40.80
2019-04-01T19:24:43.977Z,41.37
2019-04-01T19:29:45.527Z,34.37
2019-04-01T19:34:47.136Z,34.73
2019-04-01T19:39:48.279Z,32.43
2019-04-01T19:44:49.399Z,31.83
2019-04-01T19:49:50.567Z,32.13
2019-04-01T19:54:51.808Z,33.87
2019-04-01T19:59:54.317Z,35.57
2019-04-01T20:04:57.080Z,36.50
2019-04-01T20:09:58.212Z,34.70
2019-04-01T20:14:59.328Z,38.87
2019-04-01T20:20:02.413Z,37.80
2019-04-01T20:25:05.765Z,45.13
2019-04-01T20:30:09.645Z,40.03
2019-04-01T20:35:23.399Z,42.87
2019-04-01T20:40:19.498Z,42.43
2019-04-01T20:45:21.007Z,41.03
2019-04-01T20:50:24.009Z,37.30
2019-04-01T20:55:27.678Z,36.77
2019-04-01T21:00:31.249Z,38.30
2019-04-01T21:05:34.889Z,37.90
2019-04-01T21:10:36.371Z,38.77
2019-04-01T21:15:37.640Z,41.30
2019-04-01T21:20:41.341Z,45.73
2019-04-01T21:25:46.072Z,40.40
2019-04-01T21:30:49.730Z,37.63
2019-04-01T21:35:51.038Z,39.13
2019-04-01T21:40:53.916Z,40.43
2019-04-01T21:45:57.306Z,38.83
2019-04-01T21:51:00.052Z,39.73
2019-04-01T21:56:03.328Z,36.67
2019-04-01T22:01:05.008Z,32.80
2019-04-01T22:06:06.303Z,32.73
2019-04-01T22:11:09.977Z,30.93
2019-04-01T22:16:11.473Z,30.87
2019-04-01T22:21:14.930Z,28.17
2019-04-01T22:26:17.417Z,26.50
2019-04-01T22:31:18.624Z,27.80
2019-04-01T22:36:30.584Z,29.80
2019-04-01T22:41:22.710Z,28.20
2019-04-01T22:46:23.806Z,26.73
2019-04-01T22:51:26.183Z,31.37
2019-04-01T22:56:27.633Z,26.93
2019-04-01T23:01:28.890Z,28.17
2019-04-01T23:06:30.013Z,27.70
2019-04-01T23:11:33.760Z,28.10
2019-04-01T23:16:34.223Z,27.73
2019-04-01T23:21:35.412Z,28.13
2019-04-01T23:26:36.509Z,27.37
2019-04-01T23:31:38.514Z,26.40
2019-04-01T23:36:40.190Z,26.00
2019-04-01T23:41:42.231Z,28.53
2019-04-01T23:46:43.329Z,29.20
2019-04-01T23:51:44.542Z,29.43
2019-04-01T23:56:45.705Z,26.83
